Time;durP1;ratioP1;P1;durP2;ratioP2;P2;SDS_P1;SDS_P2;PMS_P1;PMS_P2;Temp;Humidity;BMP_temperature;BMP_pressure;BME280_temperature;BME280_humidity;BME280_pressure;Samples;Min_cycle;Max_cycle;Signal;HPM_P1;HPM_P2
2022/11/21 00:01:46;;;;;;;15.23;9.23;;;;;;;-1.72;100.00;95336.25;10371611;28;20268;-79
2022/11/21 00:06:49;;;;;;;14.87;10.07;;;;;;;-1.97;100.00;95338.09;10371872;28;20273;-80
2022/11/21 00:11:51;;;;;;;21.63;9.93;;;;;;;-2.03;100.00;95323.94;10371177;28;20196;-78
2022/11/21 00:16:51;;;;;;;13.93;8.83;;;;;;;-1.84;100.00;95302.03;10370886;28;20185;-80
2022/11/21 00:21:51;;;;;;;8.67;5.57;;;;;;;-0.98;100.00;95295.47;10370147;28;20225;-79
2022/11/21 00:26:52;;;;;;;10.37;6.13;;;;;;;-0.55;100.00;95281.75;10370915;28;20719;-79
2022/11/21 00:31:52;;;;;;;8.30;4.97;;;;;;;-0.37;100.00;95279.44;10362240;28;20589;-79
2022/11/21 00:36:53;;;;;;;7.73;5.33;;;;;;;-0.23;100.00;95274.91;10369770;28;20578;-79
2022/11/21 00:41:53;;;;;;;8.27;6.07;;;;;;;-0.22;100.00;95263.69;10370569;28;20283;-80
2022/11/21 00:46:53;;;;;;;7.80;5.07;;;;;;;-0.03;100.00;95239.81;10369706;28;20185;-80
2022/11/21 00:51:54;;;;;;;7.93;5.23;;;;;;;-0.04;100.00;95228.72;10369947;28;20195;-79
2022/11/21 00:56:54;;;;;;;7.53;4.77;;;;;;;0.04;100.00;95219.53;10369850;28;20193;-80
2022/11/21 01:01:55;;;;;;;6.93;4.60;;;;;;;0.06;100.00;95207.34;10369428;28;20221;-80
2022/11/21 01:06:55;;;;;;;4.10;3.07;;;;;;;0.17;100.00;95199.53;10369829;28;20327;-80
2022/11/21 01:11:55;;;;;;;4.23;3.37;;;;;;;0.19;100.00;95192.50;10369507;28;20189;-80
2022/11/21 01:16:56;;;;;;;5.83;3.60;;;;;;;0.22;100.00;95188.84;10369450;28;20204;-80
2022/11/21 01:21:56;;;;;;;5.60;3.67;;;;;;;0.40;100.00;95178.72;10370007;28;20693;-79
2022/11/21 01:26:57;;;;;;;4.23;3.60;;;;;;;0.50;100.00;95170.06;10368738;28;20564;-79
2022/11/21 01:31:57;;;;;;;5.23;3.43;;;;;;;0.56;100.00;95173.06;10372653;28;20239;-80
2022/11/21 01:36:57;;;;;;;5.73;3.57;;;;;;;0.56;100.00;95173.06;10377344;28;20267;-80
2022/11/21 01:41:58;;;;;;;6.50;4.70;;;;;;;0.52;100.00;95172.50;10376474;28;20236;-80
2022/11/21 01:46:58;;;;;;;8.67;4.77;;;;;;;0.48;100.00;95164.25;10376214;28;20335;-80
2022/11/21 01:52:07;;;;;;;5.90;3.03;;;;;;;0.51;100.00;95160.59;10376348;28;20199;-79
2022/11/21 01:57:43;;;;;;;7.07;3.83;;;;;;;0.61;100.00;95156.25;10392439;28;20311;-77
2022/11/21 02:02:47;;;;;;;5.10;3.63;;;;;;;0.59;100.00;95165.88;10389887;28;20284;-75
2022/11/21 02:07:47;;;;;;;4.67;3.27;;;;;;;0.61;100.00;95161.41;10373951;28;20252;-75
2022/11/21 02:12:50;;;;;;;3.13;2.80;;;;;;;0.65;100.00;95157.63;10357436;28;20192;-75
2022/11/21 02:17:50;;;;;;;3.90;2.93;;;;;;;0.60;100.00;95156.38;10376666;28;20209;-76
2022/11/21 02:23:11;;;;;;;4.33;2.27;;;;;;;0.61;100.00;95153.66;10390790;28;20227;-77
2022/11/21 02:28:14;;;;;;;4.57;3.00;;;;;;;0.55;100.00;95143.91;10428170;28;20193;-77
2022/11/21 02:33:15;;;;;;;9.37;4.67;;;;;;;0.43;100.00;95150.94;10390085;28;20327;-76
2022/11/21 02:38:17;;;;;;;4.70;2.90;;;;;;;0.45;100.00;95140.50;10375461;28;20316;-77
2022/11/21 02:43:24;;;;;;;7.33;4.50;;;;;;;0.28;100.00;95132.47;10373605;28;20258;-77
2022/11/21 02:48:24;;;;;;;9.83;5.70;;;;;;;0.27;100.00;95138.56;10389026;28;20265;-75
2022/11/21 02:53:25;;;;;;;12.30;6.60;;;;;;;0.20;100.00;95134.91;10374108;28;20223;-77
2022/11/21 02:58:25;;;;;;;16.63;9.00;;;;;;;0.23;100.00;95146.69;10388951;28;20666;-75
2022/11/21 03:03:26;;;;;;;16.57;5.87;;;;;;;0.26;100.00;95131.81;10373273;28;20207;-77
2022/11/21 03:08:26;;;;;;;21.53;12.20;;;;;;;0.18;100.00;95131.63;10373678;28;20263;-77
2022/11/21 03:13:26;;;;;;;12.93;5.80;;;;;;;0.28;100.00;95123.94;10372904;28;20196;-77
2022/11/21 03:18:27;;;;;;;7.10;3.17;;;;;;;0.33;100.00;95129.50;10372503;28;20216;-76
2022/11/21 03:23:27;;;;;;;5.47;4.10;;;;;;;0.29;100.00;95116.09;10372572;28;20201;-77
2022/11/21 03:28:27;;;;;;;7.40;5.87;;;;;;;0.28;100.00;95106.72;10372462;28;20699;-76
2022/11/21 03:33:28;;;;;;;7.80;5.10;;;;;;;0.28;100.00;95098.19;10387349;28;20662;-76
2022/11/21 03:38:28;;;;;;;7.90;4.63;;;;;;;0.31;100.00;95097.94;10371980;28;20235;-75
2022/11/21 03:43:28;;;;;;;14.10;8.60;;;;;;;0.33;100.00;95091.66;10372046;28;20202;-77
2022/11/21 03:48:29;;;;;;;5.53;3.93;;;;;;;0.60;100.00;95100.53;10371805;28;20185;-76
2022/11/21 03:53:29;;;;;;;12.27;7.57;;;;;;;0.74;100.00;95088.19;10371230;28;20185;-76
2022/11/21 03:58:30;;;;;;;2.27;2.07;;;;;;;0.84;100.00;95094.97;10371106;28;20718;-77
2022/11/21 04:03:30;;;;;;;4.43;2.90;;;;;;;0.84;100.00;95101.88;10380907;28;20203;-75
2022/11/21 04:08:31;;;;;;;3.73;3.20;;;;;;;1.06;100.00;95086.13;10409421;28;20214;-76
2022/11/21 04:13:31;;;;;;;7.40;4.83;;;;;;;1.13;100.00;95095.88;10408031;28;20206;-76
2022/11/21 04:18:35;;;;;;;8.80;6.83;;;;;;;1.10;100.00;95085.84;10408388;28;20672;-77
2022/11/21 04:23:35;;;;;;;3.87;2.30;;;;;;;1.33;100.00;95083.75;10407868;28;20199;-77
2022/11/21 04:28:37;;;;;;;12.87;6.67;;;;;;;1.23;100.00;95078.63;10408873;28;20203;-77
2022/11/21 04:33:38;;;;;;;11.33;6.63;;;;;;;1.30;100.00;95077.09;10407987;28;20242;-76
2022/11/21 04:38:38;;;;;;;41.80;26.03;;;;;;;1.41;100.00;95071.78;10407807;28;20223;-77
2022/11/21 04:43:39;;;;;;;2.13;2.03;;;;;;;1.47;100.00;95069.56;10406834;28;20197;-77
2022/11/21 04:48:39;;;;;;;4.53;2.30;;;;;;;1.47;100.00;95073.00;10406736;28;20641;-77
2022/11/21 04:53:39;;;;;;;3.50;3.20;;;;;;;1.34;100.00;95068.13;10408573;28;20191;-76
2022/11/21 04:58:40;;;;;;;5.77;5.20;;;;;;;1.40;100.00;95070.16;10407441;28;20227;-76
2022/11/21 05:03:40;;;;;;;5.37;4.83;;;;;;;1.53;100.00;95071.59;10409891;28;20687;-76
2022/11/21 05:08:40;;;;;;;3.70;2.70;;;;;;;1.52;100.00;95072.56;10408509;28;20556;-76
2022/11/21 05:13:41;;;;;;;9.57;5.00;;;;;;;1.55;100.00;95067.13;10410793;28;20196;-77
2022/11/21 05:18:41;;;;;;;10.67;4.87;;;;;;;1.57;100.00;95072.94;10410095;28;20223;-76
2022/11/21 05:23:42;;;;;;;7.57;4.50;;;;;;;1.65;100.00;95069.66;10410334;28;20681;-76
2022/11/21 05:28:42;;;;;;;2.43;1.73;;;;;;;1.61;100.00;95069.13;10408780;28;20203;-75
2022/11/21 05:33:42;;;;;;;1.43;1.20;;;;;;;1.53;100.00;95075.00;10409317;28;20314;-76
2022/11/21 05:38:43;;;;;;;1.40;1.30;;;;;;;1.52;100.00;95067.41;10409589;28;20220;-77
2022/11/21 05:43:46;;;;;;;5.03;2.47;;;;;;;1.45;100.00;95076.66;10409639;28;20189;-77
2022/11/21 05:48:47;;;;;;;2.73;2.13;;;;;;;1.47;100.00;95073.00;10393211;28;20284;-77
2022/11/21 05:53:48;;;;;;;1.57;1.47;;;;;;;1.48;100.00;95076.38;10409422;28;20661;-77
2022/11/21 05:58:48;;;;;;;5.00;1.87;;;;;;;1.43;100.00;95080.19;10410249;28;20216;-77
2022/11/21 06:03:48;;;;;;;3.60;1.53;;;;;;;1.47;100.00;95091.06;10392496;28;20335;-76
2022/11/21 06:08:49;;;;;;;1.87;1.67;;;;;;;1.44;100.00;95091.34;10409732;28;20196;-77
2022/11/21 06:13:49;;;;;;;2.50;1.80;;;;;;;1.49;100.00;95096.88;10409891;28;20303;-75
2022/11/21 06:18:53;;;;;;;1.30;1.20;;;;;;;1.40;100.00;95100.31;10412971;28;20229;-77
2022/11/21 06:23:56;;;;;;;6.70;2.40;;;;;;;1.51;100.00;95107.06;10416879;28;20286;-77
2022/11/21 06:28:56;;;;;;;2.70;2.07;;;;;;;1.49;100.00;95109.78;10416904;28;20206;-76
2022/11/21 06:33:58;;;;;;;2.57;1.90;;;;;;;1.47;100.00;95118.59;10416908;28;20208;-75
2022/11/21 06:38:58;;;;;;;2.23;1.67;;;;;;;1.52;100.00;95124.19;10417322;28;20224;-76
2022/11/21 06:44:01;;;;;;;2.83;1.83;;;;;;;1.65;100.00;95145.31;10416378;28;20188;-77
2022/11/21 06:49:01;;;;;;;1.93;1.73;;;;;;;1.72;100.00;95154.13;10416327;28;20193;-75
2022/11/21 06:54:02;;;;;;;2.13;1.93;;;;;;;1.70;100.00;95161.22;10416085;28;20623;-76
2022/11/21 06:59:02;;;;;;;1.73;1.63;;;;;;;1.70;100.00;95163.78;10415109;28;20228;-77
2022/11/21 07:04:03;;;;;;;3.60;3.23;;;;;;;1.67;100.00;95183.88;10415983;28;20208;-77
2022/11/21 07:09:03;;;;;;;3.37;2.80;;;;;;;1.59;100.00;95194.91;10415855;28;20189;-78
2022/11/21 07:14:04;;;;;;;2.30;2.10;;;;;;;1.53;100.00;95203.22;10418459;28;20232;-77
2022/11/21 07:19:04;;;;;;;1.97;1.77;;;;;;;1.46;100.00;95212.47;10429448;28;20236;-76
2022/11/21 07:24:05;;;;;;;2.40;2.20;;;;;;;1.19;100.00;95224.28;10415628;28;20192;-77
2022/11/21 07:29:05;;;;;;;2.47;2.27;;;;;;;1.09;100.00;95246.66;10415392;28;20704;-77
2022/11/21 07:34:05;;;;;;;2.63;2.43;;;;;;;1.05;100.00;95256.44;10424239;28;20196;-77
2022/11/21 07:39:06;;;;;;;1.90;1.80;;;;;;;0.85;100.00;95263.34;10416033;28;20323;-76
2022/11/21 07:44:06;;;;;;;1.73;1.63;;;;;;;0.69;100.00;95262.06;10398815;28;20189;-75
2022/11/21 07:49:07;;;;;;;1.30;1.20;;;;;;;0.66;100.00;95277.00;10420719;28;20192;-75
2022/11/21 07:54:07;;;;;;;1.33;1.23;;;;;;;0.58;100.00;95275.03;10464093;28;20180;-76
2022/11/21 07:59:07;;;;;;;2.23;1.97;;;;;;;0.50;100.00;95280.03;10439736;28;20223;-76
2022/11/21 08:04:08;;;;;;;2.77;2.43;;;;;;;0.53;100.00;95284.94;10414199;28;20192;-75
2022/11/21 08:09:08;;;;;;;2.30;2.10;;;;;;;0.43;100.00;95281.50;10411819;28;20275;-77
2022/11/21 08:14:09;;;;;;;2.40;2.20;;;;;;;0.31;100.00;95291.09;10409977;28;20199;-77
2022/11/21 08:19:09;;;;;;;3.10;2.80;;;;;;;0.19;100.00;95295.50;10410922;28;20230;-77
2022/11/21 08:24:13;;;;;;;3.43;3.13;;;;;;;-0.03;100.00;95299.84;10386965;28;20237;-77
2022/11/21 08:29:17;;;;;;;4.23;3.30;;;;;;;-0.12;100.00;95318.63;10443315;28;20262;-78
2022/11/21 08:34:18;;;;;;;4.27;3.57;;;;;;;-0.40;100.00;95320.88;10450235;28;20294;-75
2022/11/21 08:39:19;;;;;;;3.60;3.10;;;;;;;-0.30;100.00;95338.13;10451376;28;20231;-76
2022/11/21 08:44:19;;;;;;;4.00;3.60;;;;;;;-0.61;100.00;95348.31;10449188;28;20592;-76
2022/11/21 08:49:19;;;;;;;4.30;3.90;;;;;;;-0.71;100.00;95361.06;10419081;28;20184;-76
2022/11/21 08:54:22;;;;;;;4.03;3.63;;;;;;;-0.65;100.00;95368.28;10409342;28;20201;-76
2022/11/21 08:59:22;;;;;;;4.27;3.70;;;;;;;-0.67;100.00;95371.91;10408576;28;20286;-77
2022/11/21 09:04:23;;;;;;;5.53;4.50;;;;;;;-0.78;100.00;95377.88;10404573;28;20200;-76
2022/11/21 09:09:23;;;;;;;5.47;4.67;;;;;;;-0.85;100.00;95380.13;10409602;28;20193;-76
2022/11/21 09:19:42;;;;;;;8.77;6.40;;;;;;;-0.81;100.00;95404.69;10408347;28;20299;-77
2022/11/21 09:24:43;;;;;;;10.83;7.57;;;;;;;-0.95;100.00;95397.19;10408616;28;20198;-77
2022/11/21 09:29:43;;;;;;;13.80;8.27;;;;;;;-0.95;100.00;95397.19;10408187;28;20230;-77
2022/11/21 09:34:44;;;;;;;13.73;9.70;;;;;;;-1.21;100.00;95397.47;10408076;28;20624;-78
2022/11/21 09:39:44;;;;;;;15.93;10.13;;;;;;;-1.22;100.00;95413.00;10408337;28;20233;-77
2022/11/21 09:45:01;;;;;;;17.90;11.30;;;;;;;-1.18;100.00;95417.78;10408097;28;20933;-78
2022/11/21 09:50:12;;;;;;;18.57;11.63;;;;;;;-1.21;100.00;95419.75;10407192;28;20216;-77
2022/11/21 09:55:36;;;;;;;22.67;12.73;;;;;;;-1.34;100.00;95428.38;10414172;28;20197;-77
2022/11/21 10:00:36;;;;;;;27.10;15.27;;;;;;;-1.41;100.00;95446.94;10405438;28;20599;-77
2022/11/21 10:05:40;;;;;;;21.70;13.63;;;;;;;-1.30;100.00;95446.97;10415420;28;20188;-77
2022/11/21 10:10:54;;;;;;;22.43;13.00;;;;;;;-1.29;100.00;95440.88;10415783;28;20191;-78
2022/11/21 10:16:07;;;;;;;22.23;13.50;;;;;;;-1.41;100.00;95444.38;10413983;28;20208;-78
2022/11/21 10:21:22;;;;;;;25.73;15.03;;;;;;;-1.45;100.00;95444.59;10408624;28;20216;-81
2022/11/21 10:26:35;;;;;;;26.03;14.13;;;;;;;-1.42;100.00;95447.88;10413675;28;20228;-76
2022/11/21 10:31:37;;;;;;;31.43;16.87;;;;;;;-1.48;100.00;95452.53;10397031;28;20700;-79
2022/11/21 10:36:43;;;;;;;30.97;16.40;;;;;;;-1.46;100.00;95450.66;10413791;28;20711;-78
2022/11/21 10:41:54;;;;;;;27.23;15.43;;;;;;;-1.38;100.00;95457.00;10396057;28;20212;-77
2022/11/21 10:46:56;;;;;;;24.60;14.57;;;;;;;-1.37;100.00;95461.19;10391459;28;20204;-77
2022/11/21 10:52:04;;;;;;;25.20;14.37;;;;;;;-1.29;100.00;95476.84;10420992;28;20193;-78
2022/11/21 10:57:18;;;;;;;24.50;14.07;;;;;;;-1.23;100.00;95467.88;10408814;28;20214;-78
2022/11/21 11:02:18;;;;;;;27.23;15.00;;;;;;;-1.30;100.00;95462.38;10406340;28;20303;-79
2022/11/21 11:07:22;;;;;;;23.33;13.03;;;;;;;-1.45;100.00;95462.56;10422182;28;20205;-78
2022/11/21 11:13:32;;;;;;;22.60;12.33;;;;;;;-1.18;100.00;95447.78;10420111;28;21100;-78
2022/11/21 11:17:50;;;;;;;23.70;13.57;;;;;;;-1.20;100.00;95454.81;10454202;28;20290;-79
2022/11/21 11:22:50;;;;;;;22.20;11.70;;;;;;;-0.95;100.00;95454.59;10436352;28;20238;-78
2022/11/21 11:27:51;;;;;;;21.33;12.77;;;;;;;-0.86;100.00;95455.63;10436847;28;20211;-77
2022/11/21 11:32:52;;;;;;;25.43;13.80;;;;;;;-0.79;100.00;95454.22;10403717;28;20293;-77
2022/11/21 11:37:59;;;;;;;28.90;15.77;;;;;;;-0.93;100.00;95460.41;10410665;28;20765;-76
2022/11/21 11:48:35;;;;;;;32.27;16.20;;;;;;;-0.98;100.00;95446.28;10410385;28;20581;-75
2022/11/21 11:53:44;;;;;;;30.97;15.10;;;;;;;-0.74;100.00;95441.81;10409997;28;20537;-76
2022/11/21 11:58:58;;;;;;;32.33;16.13;;;;;;;-0.70;100.00;95434.69;10401307;28;20225;-77
2022/11/21 12:04:05;;;;;;;27.77;15.33;;;;;;;-0.55;100.00;95443.00;10405842;28;20555;-77
2022/11/21 12:09:13;;;;;;;31.53;14.53;;;;;;;-0.58;100.00;95436.31;10391968;28;20236;-76
2022/11/21 12:19:41;;;;;;;28.40;15.27;;;;;;;-1.24;100.00;95448.25;10407946;28;20319;-77
2022/11/21 12:24:42;;;;;;;34.53;16.07;;;;;;;-0.97;100.00;95451.28;10405205;28;20220;-77
2022/11/21 12:29:56;;;;;;;26.70;14.10;;;;;;;-0.90;100.00;95442.19;10380290;28;20241;-77
2022/11/21 12:35:10;;;;;;;26.10;13.00;;;;;;;-0.79;100.00;95441.38;10404450;28;20199;-77
2022/11/21 12:40:26;;;;;;;25.40;13.00;;;;;;;-0.62;100.00;95441.81;10389191;28;20704;-77
2022/11/21 12:45:42;;;;;;;23.40;12.90;;;;;;;-0.42;100.00;95433.34;10406623;28;20192;-77
2022/11/21 12:57:05;;;;;;;34.27;18.23;;;;;;;-0.45;100.00;95431.03;10395750;28;20682;-77
2022/11/21 13:02:26;;;;;;;28.07;16.47;;;;;;;-0.68;100.00;95432.81;10388846;28;20222;-77
2022/11/21 13:07:30;;;;;;;26.60;13.60;;;;;;;-0.68;100.00;95416.59;10365220;28;20231;-76
2022/11/21 13:12:44;;;;;;;22.13;12.87;;;;;;;-0.45;100.00;95415.59;10365594;28;20587;-76
2022/11/21 13:17:58;;;;;;;21.83;11.97;;;;;;;-0.26;100.00;95408.97;10367036;28;20679;-76
2022/11/21 13:23:00;;;;;;;20.53;12.03;;;;;;;-0.21;100.00;95404.31;10381908;28;20241;-76
2022/11/21 13:28:12;;;;;;;20.63;11.83;;;;;;;-0.13;100.00;95398.53;10370830;28;20195;-76
2022/11/21 13:33:34;;;;;;;21.27;12.07;;;;;;;-0.13;100.00;95399.34;10374685;28;20814;-76
2022/11/21 13:38:49;;;;;;;19.77;11.43;;;;;;;0.09;100.00;95398.44;10408764;28;20292;-75
2022/11/21 13:43:50;;;;;;;21.90;12.63;;;;;;;0.19;100.00;95388.22;10396103;28;20639;-74
2022/11/21 13:48:57;;;;;;;19.60;11.30;;;;;;;0.27;100.00;95380.66;10413256;28;20190;-75
2022/11/21 13:54:20;;;;;;;22.97;12.97;;;;;;;0.29;100.00;95371.06;10411563;28;20200;-75
2022/11/21 13:59:39;;;;;;;21.33;11.80;;;;;;;-0.08;100.00;95374.03;10411028;28;20215;-76
2022/11/21 14:05:09;;;;;;;20.33;11.93;;;;;;;0.26;100.00;95371.31;10399960;28;20194;-76
2022/11/21 14:10:32;;;;;;;19.70;11.23;;;;;;;0.05;100.00;95367.94;10410885;28;20195;-75
2022/11/21 14:15:47;;;;;;;20.23;11.47;;;;;;;0.02;100.00;95365.59;10411497;28;20209;-76
2022/11/21 14:20:55;;;;;;;21.80;12.90;;;;;;;-0.25;100.00;95369.44;10412109;28;20222;-75
2022/11/21 14:26:01;;;;;;;23.90;13.03;;;;;;;-0.10;100.00;95364.84;10411601;28;20249;-76
2022/11/21 14:31:11;;;;;;;21.97;13.20;;;;;;;-0.03;100.00;95358.22;10392683;28;20308;-75
2022/11/21 14:36:17;;;;;;;26.83;14.93;;;;;;;0.10;100.00;95364.00;10409997;28;20665;-76
2022/11/21 14:41:31;;;;;;;23.40;13.20;;;;;;;-0.11;100.00;95360.63;10406976;28;20222;-76
2022/11/21 14:46:39;;;;;;;25.33;14.10;;;;;;;-0.28;100.00;95360.22;10407897;28;20249;-76
2022/11/21 14:51:40;;;;;;;25.53;14.93;;;;;;;-0.35;100.00;95366.81;10410569;28;20191;-76
2022/11/21 14:56:40;;;;;;;23.73;14.40;;;;;;;-0.38;100.00;95365.28;10411001;28;20189;-76
2022/11/21 15:01:54;;;;;;;26.00;15.67;;;;;;;-0.44;100.00;95359.81;10411794;28;20222;-76
2022/11/21 15:06:54;;;;;;;26.47;15.40;;;;;;;-0.48;100.00;95372.09;10393540;28;20640;-76
2022/11/21 15:12:07;;;;;;;29.73;16.13;;;;;;;-0.55;100.00;95378.69;10410856;28;20196;-77
2022/11/21 15:17:11;;;;;;;23.80;14.17;;;;;;;-0.61;100.00;95379.16;10410877;28;20203;-76
2022/11/21 15:22:23;;;;;;;25.37;15.33;;;;;;;-0.69;100.00;95368.66;10410136;28;20697;-76
2022/11/21 15:27:29;;;;;;;26.13;13.83;;;;;;;-0.68;100.00;95375.44;10410516;28;20221;-76
2022/11/21 15:32:30;;;;;;;54.37;27.97;;;;;;;-0.66;100.00;95381.25;10409230;28;20692;-76
2022/11/21 15:37:32;;;;;;;35.03;19.10;;;;;;;-0.53;100.00;95379.38;10411007;28;20210;-77
2022/11/21 15:42:34;;;;;;;29.07;15.63;;;;;;;-0.62;100.00;95368.03;10441148;28;20225;-76
2022/11/21 15:47:35;;;;;;;35.40;17.50;;;;;;;-0.85;100.00;95357.00;10403756;28;20210;-76
2022/11/21 15:52:49;;;;;;;36.87;16.97;;;;;;;-0.97;100.00;95352.81;10409842;28;20192;-76
2022/11/21 15:57:50;;;;;;;35.23;16.87;;;;;;;-0.99;100.00;95347.78;10410723;28;20291;-76
2022/11/21 16:02:50;;;;;;;35.20;17.60;;;;;;;-0.93;100.00;95351.66;10401149;28;20196;-77
2022/11/21 16:07:51;;;;;;;49.50;25.53;;;;;;;-0.73;100.00;95347.50;10410171;28;20205;-77
2022/11/21 16:12:51;;;;;;;40.43;21.53;;;;;;;-0.78;100.00;95339.31;10420175;28;20201;-77
2022/11/21 16:17:51;;;;;;;32.37;15.97;;;;;;;-0.81;100.00;95331.84;10408214;28;20350;-77
2022/11/21 16:22:52;;;;;;;33.57;17.30;;;;;;;-0.83;100.00;95329.41;10409572;28;20199;-77
2022/11/21 16:27:52;;;;;;;34.80;18.03;;;;;;;-0.80;100.00;95329.16;10409662;28;20258;-77
2022/11/21 16:32:55;;;;;;;38.43;20.33;;;;;;;-0.58;100.00;95319.78;10422451;28;20224;-77
2022/11/21 16:37:55;;;;;;;40.77;21.13;;;;;;;-0.68;100.00;95311.16;10424508;28;20999;-77
2022/11/21 16:43:07;;;;;;;42.70;22.97;;;;;;;-0.65;100.00;95306.56;10424387;28;20199;-77
2022/11/21 16:48:07;;;;;;;44.83;24.40;;;;;;;-0.74;100.00;95300.41;10407020;28;20770;-78
2022/11/21 16:53:07;;;;;;;45.33;24.83;;;;;;;-0.72;100.00;95300.28;10407857;28;20194;-77
2022/11/21 16:58:08;;;;;;;43.40;20.33;;;;;;;-0.78;100.00;95295.63;10407919;28;20280;-77
2022/11/21 17:03:09;;;;;;;40.23;21.47;;;;;;;-0.82;100.00;95295.06;10407490;28;20196;-77
2022/11/21 17:08:09;;;;;;;42.50;21.20;;;;;;;-0.85;100.00;95292.72;10389310;28;20674;-76
2022/11/21 17:13:09;;;;;;;49.87;24.10;;;;;;;-0.94;100.00;95291.69;10405758;28;20193;-77
2022/11/21 17:18:10;;;;;;;25.07;14.97;;;;;;;-0.35;100.00;95287.06;10408977;28;20217;-77
2022/11/21 17:23:10;;;;;;;34.87;19.30;;;;;;;-0.27;100.00;95289.00;10409075;28;20204;-77
2022/11/21 17:28:11;;;;;;;40.40;21.67;;;;;;;-0.44;100.00;95298.09;10408944;28;20192;-77
2022/11/21 17:33:11;;;;;;;32.33;18.53;;;;;;;-0.42;100.00;95291.84;10411718;28;20741;-76
2022/11/21 17:38:12;;;;;;;28.53;16.23;;;;;;;-0.50;100.00;95301.97;10450157;28;20220;-77
2022/11/21 17:43:12;;;;;;;13.47;8.97;;;;;;;-0.49;100.00;95302.75;10432048;28;20195;-77
2022/11/21 17:48:13;;;;;;;12.90;8.30;;;;;;;-0.46;100.00;95298.22;10431847;28;20593;-77
2022/11/21 17:53:13;;;;;;;10.77;7.13;;;;;;;-0.52;100.00;95303.84;10449520;28;20192;-76
2022/11/21 17:58:13;;;;;;;9.57;5.80;;;;;;;-0.60;100.00;95299.31;10440735;28;20222;-78
2022/11/21 18:03:14;;;;;;;7.37;4.70;;;;;;;-0.55;100.00;95296.38;10428483;28;20196;-77
2022/11/21 18:08:14;;;;;;;8.63;6.10;;;;;;;-0.57;100.00;95296.50;10421804;28;20221;-76
2022/11/21 18:13:15;;;;;;;7.87;5.90;;;;;;;-0.59;100.00;95282.94;10409363;28;20261;-77
2022/11/21 18:18:16;;;;;;;9.90;5.50;;;;;;;-0.58;100.00;95281.19;10415755;28;20223;-76
2022/11/21 18:23:17;;;;;;;9.03;6.47;;;;;;;-0.70;100.00;95266.72;10414335;28;20191;-76
2022/11/21 18:28:17;;;;;;;10.13;7.40;;;;;;;-0.78;100.00;95265.59;10414786;28;20200;-77
2022/11/21 18:33:17;;;;;;;9.87;7.33;;;;;;;-0.77;100.00;95264.63;10399955;28;20241;-77
2022/11/21 18:38:18;;;;;;;9.77;7.00;;;;;;;-0.74;100.00;95255.88;10374166;28;20636;-76
2022/11/21 18:43:18;;;;;;;7.83;5.37;;;;;;;-0.72;100.00;95244.53;10373089;28;20312;-78
2022/11/21 18:48:19;;;;;;;11.40;7.53;;;;;;;-0.70;100.00;95226.41;10373578;28;20559;-78
2022/11/21 18:53:19;;;;;;;16.20;9.43;;;;;;;-0.81;100.00;95203.31;10372912;28;20189;-77
2022/11/21 18:58:20;;;;;;;25.03;16.07;;;;;;;-0.94;100.00;95200.91;10390787;28;20213;-76
2022/11/21 19:03:21;;;;;;;22.03;14.00;;;;;;;-1.09;100.00;95175.53;10394778;28;20250;-78
2022/11/21 19:08:21;;;;;;;18.63;12.63;;;;;;;-1.11;100.00;95177.38;10413747;28;20227;-77
2022/11/21 19:13:22;;;;;;;10.50;6.13;;;;;;;-1.16;100.00;95161.53;10386473;28;20284;-78
2022/11/21 19:18:22;;;;;;;15.57;9.70;;;;;;;-1.18;100.00;95147.16;10372616;28;20296;-78
2022/11/21 19:23:22;;;;;;;14.77;8.60;;;;;;;-1.29;100.00;95150.59;10371793;28;20691;-78
2022/11/21 19:28:23;;;;;;;15.37;9.77;;;;;;;-1.41;100.00;95138.72;10370961;28;20529;-78
2022/11/21 19:33:24;;;;;;;15.17;9.20;;;;;;;-1.48;100.00;95131.50;10408469;28;20254;-78
2022/11/21 19:38:24;;;;;;;11.10;7.40;;;;;;;-1.32;100.00;95140.56;10453720;28;20215;-78
2022/11/21 19:43:27;;;;;;;17.37;10.93;;;;;;;-1.44;100.00;95143.19;10453197;28;20222;-78
2022/11/21 19:48:31;;;;;;;14.40;9.70;;;;;;;-1.40;100.00;95145.50;10453464;28;20192;-78
2022/11/21 19:53:35;;;;;;;14.07;9.67;;;;;;;-1.34;100.00;95145.00;10453407;28;20188;-77
2022/11/21 19:58:35;;;;;;;31.60;14.13;;;;;;;-1.33;100.00;95154.34;10452313;28;20311;-77
2022/11/21 20:03:37;;;;;;;47.53;17.47;;;;;;;-1.31;100.00;95149.91;10452669;28;20190;-78
2022/11/21 20:08:37;;;;;;;71.20;24.83;;;;;;;-1.45;100.00;95156.94;10451992;28;20275;-79
2022/11/21 20:13:39;;;;;;;13.80;7.53;;;;;;;-1.47;100.00;95165.69;10451754;28;20562;-78
2022/11/21 20:18:40;;;;;;;15.10;9.43;;;;;;;-1.12;100.00;95160.34;10451993;28;20220;-77
2022/11/21 20:23:40;;;;;;;16.57;10.57;;;;;;;-0.92;100.00;95165.63;10430703;28;20188;-78
2022/11/21 20:28:40;;;;;;;13.33;7.77;;;;;;;-0.97;100.00;95165.19;10410324;28;20276;-77
2022/11/21 20:33:49;;;;;;;14.63;7.50;;;;;;;-0.97;100.00;95162.63;10410031;28;20231;-79
2022/11/21 20:39:01;;;;;;;28.53;14.63;;;;;;;-1.22;100.00;95151.75;10391179;28;20684;-78
2022/11/21 20:44:05;;;;;;;29.37;16.50;;;;;;;-1.42;100.00;95148.19;10409683;28;20197;-77
2022/11/21 20:49:06;;;;;;;25.40;13.00;;;;;;;-1.35;100.00;95130.53;10392246;28;20238;-76
2022/11/21 20:54:06;;;;;;;23.03;12.93;;;;;;;-1.52;100.00;95132.69;10409549;28;20291;-77
2022/11/21 20:59:07;;;;;;;18.77;10.67;;;;;;;-1.29;100.00;95124.91;10391867;28;20217;-77
2022/11/21 21:04:11;;;;;;;20.17;10.17;;;;;;;-1.15;100.00;95123.78;10424504;28;20196;-77
2022/11/21 21:09:11;;;;;;;21.20;11.23;;;;;;;-1.12;100.00;95115.84;10426066;28;20189;-78
2022/11/21 21:14:11;;;;;;;18.67;10.73;;;;;;;-1.29;100.00;95102.63;10408968;28;20656;-78
2022/11/21 21:19:12;;;;;;;17.43;10.43;;;;;;;-1.32;100.00;95099.47;10391517;28;20216;-76
2022/11/21 21:24:13;;;;;;;16.93;10.43;;;;;;;-1.25;100.00;95092.91;10409225;28;20196;-77
2022/11/21 21:29:16;;;;;;;17.33;10.73;;;;;;;-1.21;100.00;95099.44;10409410;28;20719;-77
2022/11/21 21:34:17;;;;;;;19.33;9.90;;;;;;;-1.11;100.00;95104.63;10410283;28;20223;-78
2022/11/21 21:39:17;;;;;;;16.80;10.10;;;;;;;-1.13;100.00;95097.03;10392464;28;20265;-77
2022/11/21 21:44:18;;;;;;;16.30;10.23;;;;;;;-1.19;100.00;95112.16;10409863;28;20207;-78
2022/11/21 21:49:20;;;;;;;14.87;9.87;;;;;;;-1.40;100.00;95119.81;10414325;28;20287;-78
2022/11/21 21:54:20;;;;;;;17.27;9.00;;;;;;;-1.48;100.00;95130.69;10417845;28;20192;-78
2022/11/21 21:59:21;;;;;;;15.70;8.93;;;;;;;-1.69;100.00;95122.94;10417906;28;20220;-77
2022/11/21 22:04:21;;;;;;;17.47;9.80;;;;;;;-2.11;100.00;95115.91;10417206;28;20200;-77
2022/11/21 22:09:21;;;;;;;16.53;9.57;;;;;;;-2.28;100.00;95101.81;10416764;28;20181;-77
2022/11/21 22:14:22;;;;;;;15.57;9.20;;;;;;;-2.61;100.00;95082.13;10416738;28;20189;-77
2022/11/21 22:19:22;;;;;;;14.70;9.33;;;;;;;-2.77;100.00;95092.69;10416914;28;20216;-77
2022/11/21 22:24:22;;;;;;;17.57;9.90;;;;;;;-2.85;100.00;95093.25;10416523;28;20275;-77
2022/11/21 22:29:23;;;;;;;20.27;10.27;;;;;;;-2.54;100.00;95090.97;10416870;28;20221;-78
2022/11/21 22:34:23;;;;;;;18.40;11.17;;;;;;;-2.64;100.00;95078.03;10416994;28;20193;-77
2022/11/21 22:39:25;;;;;;;18.77;11.40;;;;;;;-2.62;100.00;95086.44;10416598;28;20274;-76
2022/11/21 22:44:26;;;;;;;19.63;10.10;;;;;;;-2.80;100.00;95057.88;10416013;28;20266;-76
2022/11/21 22:49:26;;;;;;;21.60;10.47;;;;;;;-1.89;100.00;95055.22;10415976;28;20270;-76
2022/11/21 22:54:26;;;;;;;17.37;9.77;;;;;;;-2.17;100.00;95045.34;10418426;28;20223;-76
2022/11/21 22:59:27;;;;;;;14.87;9.40;;;;;;;-2.04;100.00;95034.13;10415140;28;20701;-77
2022/11/21 23:04:27;;;;;;;10.10;5.70;;;;;;;-0.79;100.00;95024.06;10416288;28;20192;-78
2022/11/21 23:09:27;;;;;;;10.53;6.50;;;;;;;-0.48;100.00;95011.97;10416312;28;20242;-77
2022/11/21 23:14:28;;;;;;;10.40;6.27;;;;;;;-0.26;100.00;94999.84;10416329;28;20202;-78
2022/11/21 23:19:28;;;;;;;17.27;9.63;;;;;;;-0.56;100.00;95009.25;10417488;28;20279;-76
2022/11/21 23:24:28;;;;;;;29.53;14.37;;;;;;;-1.13;100.00;95001.97;10418177;28;20196;-75